Time;durP1;ratioP1;P1;durP2;ratioP2;P2;SDS_P1;SDS_P2;PMS_P1;PMS_P2;Temp;Humidity;BMP_temperature;BMP_pressure;BME280_temperature;BME280_humidity;BME280_pressure;Samples;Min_cycle;Max_cycle;Signal;HPM_P1;HPM_P2
2022/09/15 00:01:30;;;;;;;8.35;1.52;;;15.80;99.90;;;;;;5154527;27;20431;-79
2022/09/15 00:03:56;;;;;;;;;;;15.60;99.90;;;;;;5154800;27;20050;-80
2022/09/15 00:06:21;;;;;;;6.25;1.15;;;15.90;99.90;;;;;;5154498;27;19919;-81
2022/09/15 00:08:47;;;;;;;;;;;16.10;99.90;;;;;;5154441;27;20043;-76
2022/09/15 00:11:21;;;;;;;6.95;2.88;;;15.70;99.90;;;;;;5154313;27;19972;-81
2022/09/15 00:13:46;;;;;;;4.55;0.77;;;15.70;99.90;;;;;;5154180;27;20086;-80
2022/09/15 00:16:12;;;;;;;11.27;1.40;;;15.40;99.90;;;;;;5154469;27;20490;-75
2022/09/15 00:18:39;;;;;;;5.38;1.13;;;15.80;99.90;;;;;;5135626;27;20056;-77
2022/09/15 00:21:12;;;;;;;9.40;1.40;;;16.00;99.90;;;;;;5153496;27;20466;-77
2022/09/15 00:23:38;;;;;;;7.55;1.42;;;15.70;99.90;;;;;;5154277;27;20047;-79
2022/09/15 00:26:09;;;;;;;8.43;1.80;;;15.60;99.90;;;;;;5153966;27;20043;-79
2022/09/15 00:28:35;;;;;;;10.40;1.85;;;15.90;99.90;;;;;;5154215;27;20038;-76
2022/09/15 00:31:05;;;;;;;6.88;1.42;;;16.10;99.90;;;;;;5154029;27;20046;-80
2022/09/15 00:33:31;;;;;;;8.90;1.50;;;16.10;99.90;;;;;;5153184;27;20481;-81
2022/09/15 00:36:01;;;;;;;6.53;1.35;;;15.90;99.90;;;;;;5153518;27;20050;-77
2022/09/15 00:38:27;;;;;;;8.23;1.35;;;15.70;99.90;;;;;;5154246;27;20042;-80
2022/09/15 00:40:55;;;;;;;7.72;1.45;;;16.20;99.90;;;;;;5154141;27;20042;-76
2022/09/15 00:43:48;;;;;;;10.55;1.60;;;15.80;99.90;;;;;;5135501;27;20047;-80
2022/09/15 00:46:16;;;;;;;10.18;1.20;;;15.90;99.90;;;;;;5153787;27;20078;-76
2022/09/15 00:49:01;;;;;;;9.85;2.28;;;15.40;99.90;;;;;;5135169;27;20093;-79
2022/09/15 00:51:56;;;;;;;7.32;1.60;;;16.00;99.90;;;;;;5153507;27;20043;-80
2022/09/15 00:54:31;;;;;;;8.98;1.60;;;15.70;99.90;;;;;;5153429;27;20553;-82
2022/09/15 00:57:00;;;;;;;10.65;2.85;;;15.90;99.90;;;;;;5154037;27;20050;-79
2022/09/15 00:59:29;;;;;;;8.93;1.52;;;15.60;99.90;;;;;;5153760;27;20129;-75
2022/09/15 01:02:02;;;;;;;16.05;2.70;;;15.80;99.90;;;;;;5153800;27;20038;-79
2022/09/15 01:04:28;;;;;;;9.07;1.50;;;15.70;99.90;;;;;;5153412;27;20039;-79
2022/09/15 01:06:59;;;;;;;6.13;1.40;;;16.10;99.90;;;;;;5153570;27;20119;-80
2022/09/15 01:09:32;;;;;;;7.28;1.75;;;15.80;99.90;;;;;;5153744;27;20042;-77
2022/09/15 01:11:57;;;;;;;4.93;1.45;;;15.90;99.90;;;;;;5153221;27;20082;-81
2022/09/15 01:14:23;;;;;;;12.52;1.55;;;15.80;99.90;;;;;;5153675;27;20078;-77
2022/09/15 01:16:48;;;;;;;;;;;15.60;99.90;;;;;;5154156;27;20545;-81
2022/09/15 01:19:42;;;;;;;7.38;1.45;;;15.70;99.90;;;;;;5153425;27;19923;-78
2022/09/15 01:22:29;;;;;;;6.13;1.40;;;16.00;99.90;;;;;;5153631;27;20049;-82
2022/09/15 01:25:39;;;;;;;7.13;2.40;;;15.90;99.90;;;;;;5153728;27;20402;-80
2022/09/15 01:28:29;;;;;;;9.75;1.85;;;15.70;99.90;;;;;;5134929;27;20050;-81
2022/09/15 01:31:01;;;;;;;7.20;1.60;;;15.80;99.90;;;;;;5152838;27;20053;-76
2022/09/15 01:33:26;;;;;;;8.85;1.98;;;15.70;99.90;;;;;;5134917;27;20390;-75
2022/09/15 01:35:59;;;;;;;5.25;1.70;;;15.80;99.90;;;;;;5153317;27;20043;-65
2022/09/15 01:38:47;;;;;;;13.45;1.80;;;15.30;99.90;;;;;;5153357;27;20052;-65
2022/09/15 01:41:56;;;;;;;11.90;1.80;;;15.00;99.90;;;;;;5153284;27;20125;-68
2022/09/15 01:44:26;;;;;;;7.00;1.63;;;14.60;99.90;;;;;;5149547;27;20501;-70
2022/09/15 01:46:57;;;;;;;7.90;1.50;;;14.40;99.90;;;;;;5157235;27;20047;-67
2022/09/15 01:49:33;;;;;;;7.82;1.40;;;13.90;99.90;;;;;;5156920;27;20443;-68
2022/09/15 01:51:58;;;;;;;7.07;1.37;;;13.90;99.90;;;;;;5138561;27;20050;-67
2022/09/15 01:54:29;;;;;;;8.18;1.50;;;13.90;99.90;;;;;;5157008;27;20284;-64
2022/09/15 01:56:56;;;;;;;8.45;2.13;;;13.80;99.90;;;;;;5157063;27;20114;-67
2022/09/15 01:59:21;;;;;;;15.07;1.83;;;13.50;99.90;;;;;;5156902;27;20051;-66
2022/09/15 02:01:56;;;;;;;10.32;1.60;;;13.70;99.90;;;;;;5156939;27;20454;-66
2022/09/15 02:04:46;;;;;;;12.90;2.15;;;13.60;99.90;;;;;;5156581;27;20039;-62
2022/09/15 02:07:34;;;;;;;10.57;2.15;;;13.70;99.90;;;;;;5156848;27;20042;-63
2022/09/15 02:10:12;;;;;;;17.60;2.38;;;13.70;99.90;;;;;;5156680;27;20035;-65
2022/09/15 02:13:05;;;;;;;12.55;1.70;;;13.70;99.90;;;;;;5156737;27;20141;-66
2022/09/15 02:15:41;;;;;;;12.23;2.20;;;13.60;99.90;;;;;;5156698;27;20406;-66
2022/09/15 02:18:09;;;;;;;12.93;1.38;;;13.80;99.90;;;;;;5156309;27;20057;-68
2022/09/15 02:20:48;;;;;;;12.13;1.60;;;13.30;99.90;;;;;;5156483;27;20039;-67
2022/09/15 02:23:23;;;;;;;12.85;1.67;;;13.50;99.90;;;;;;5156909;27;20050;-69
2022/09/15 02:25:56;;;;;;;8.27;1.33;;;13.60;99.90;;;;;;5156565;27;20046;-69
2022/09/15 02:28:28;;;;;;;10.43;2.40;;;13.70;99.90;;;;;;5156460;27;20485;-69
2022/09/15 02:30:57;;;;;;;7.03;1.95;;;13.40;99.90;;;;;;5156645;27;20209;-69
2022/09/15 02:33:28;;;;;;;6.15;1.80;;;13.60;99.90;;;;;;5156225;27;20130;-67
2022/09/15 02:35:54;;;;;;;9.05;1.50;;;13.40;99.90;;;;;;5156384;27;20047;-69
2022/09/15 02:38:20;;;;;;;11.60;1.50;;;14.10;99.90;;;;;;5155897;27;20556;-69
2022/09/15 02:40:47;;;;;;;11.55;2.25;;;14.10;99.90;;;;;;5137693;27;20133;-70
2022/09/15 02:43:15;;;;;;;17.30;2.08;;;14.00;99.90;;;;;;5156056;27;20049;-69
2022/09/15 02:45:42;;;;;;;8.60;1.33;;;14.10;99.90;;;;;;5137489;27;20142;-70
2022/09/15 02:48:08;;;;;;;;;;;13.80;99.90;;;;;;5156043;27;20050;-69
2022/09/15 02:50:35;;;;;;;8.52;1.52;;;13.90;99.90;;;;;;5155934;27;19926;-69
2022/09/15 02:53:01;;;;;;;8.05;1.65;;;14.00;99.90;;;;;;5155868;27;20043;-69
2022/09/15 02:55:27;;;;;;;7.43;1.63;;;14.00;99.90;;;;;;5155169;27;20470;-69
2022/09/15 02:57:57;;;;;;;10.20;1.73;;;14.00;99.90;;;;;;5155787;27;20046;-72
2022/09/15 03:00:24;;;;;;;8.38;1.92;;;14.10;99.90;;;;;;5155737;27;20035;-69
2022/09/15 03:02:53;;;;;;;11.35;2.20;;;15.40;99.90;;;;;;5155683;27;20050;-71
2022/09/15 03:05:22;;;;;;;10.02;1.67;;;14.30;99.90;;;;;;5155618;27;20106;-70
2022/09/15 03:07:48;;;;;;;7.22;1.90;;;14.30;99.90;;;;;;5155598;27;20050;-70
2022/09/15 03:10:14;;;;;;;9.18;1.95;;;14.50;99.90;;;;;;5155443;27;20087;-67
2022/09/15 03:12:49;;;;;;;13.88;2.22;;;14.80;99.90;;;;;;5155468;27;20439;-70
2022/09/15 03:15:17;;;;;;;11.13;1.75;;;14.50;99.90;;;;;;5155239;27;20235;-69
2022/09/15 03:17:45;;;;;;;14.80;2.33;;;14.70;99.90;;;;;;5155399;27;20047;-69
2022/09/15 03:20:14;;;;;;;10.40;1.90;;;14.50;99.90;;;;;;5136708;27;20035;-69
2022/09/15 03:22:40;;;;;;;13.82;2.20;;;14.60;99.90;;;;;;5155595;27;20052;-70
2022/09/15 03:25:06;;;;;;;11.65;1.85;;;14.70;99.90;;;;;;5155272;27;20129;-70
2022/09/15 03:27:33;;;;;;;11.75;1.77;;;14.30;99.90;;;;;;5136636;27;20057;-71
2022/09/15 03:29:59;;;;;;;11.32;1.83;;;14.70;99.90;;;;;;5154416;27;20090;-70
2022/09/15 03:32:25;;;;;;;11.07;1.90;;;14.80;99.90;;;;;;5136665;27;20090;-70
2022/09/15 03:34:50;;;;;;;9.77;2.20;;;14.60;99.90;;;;;;5154736;27;20078;-70
2022/09/15 03:37:16;;;;;;;9.02;1.67;;;14.40;99.90;;;;;;5136412;27;20038;-69
2022/09/15 03:39:42;;;;;;;7.53;1.60;;;14.60;99.90;;;;;;5154967;27;20137;-68
2022/09/15 03:42:08;;;;;;;6.05;1.48;;;14.80;99.90;;;;;;5154813;27;20043;-69
2022/09/15 03:44:34;;;;;;;8.13;1.58;;;14.70;99.90;;;;;;5154561;27;20050;-69
2022/09/15 03:47:01;;;;;;;9.55;1.58;;;14.80;99.90;;;;;;5154427;27;20709;-68
2022/09/15 03:49:26;;;;;;;9.50;1.50;;;14.90;99.90;;;;;;5154686;27;20046;-70
2022/09/15 03:51:52;;;;;;;7.28;1.40;;;14.90;99.90;;;;;;5154572;27;20470;-70
2022/09/15 03:54:18;;;;;;;7.47;1.30;;;14.90;99.90;;;;;;5154779;27;20150;-71
2022/09/15 03:56:47;;;;;;;8.35;2.38;;;14.40;99.90;;;;;;5154603;27;20054;-71
2022/09/15 03:59:17;;;;;;;5.93;1.23;;;14.30;99.90;;;;;;5154148;27;20038;-69
2022/09/15 04:01:44;;;;;;;9.40;1.42;;;14.40;99.90;;;;;;5154762;27;20039;-69
2022/09/15 04:04:11;;;;;;;10.77;1.45;;;14.60;99.90;;;;;;5154452;27;20046;-68
2022/09/15 04:06:37;;;;;;;10.48;2.55;;;14.90;99.90;;;;;;5154316;27;20038;-68
2022/09/15 04:09:03;;;;;;;7.75;1.65;;;15.00;99.90;;;;;;5153603;27;20047;-70
2022/09/15 04:11:30;;;;;;;12.40;1.67;;;14.90;99.90;;;;;;5154261;27;20042;-69
2022/09/15 04:13:55;;;;;;;10.80;1.30;;;14.90;99.90;;;;;;5135508;27;20493;-71
2022/09/15 04:16:23;;;;;;;7.13;1.40;;;14.90;99.90;;;;;;5154337;27;20091;-66
2022/09/15 04:18:51;;;;;;;7.15;1.52;;;14.80;99.90;;;;;;5154253;27;20050;-69
2022/09/15 04:21:19;;;;;;;5.85;1.13;;;14.90;99.90;;;;;;5154427;27;20386;-70
2022/09/15 04:23:46;;;;;;;9.50;1.60;;;15.80;99.90;;;;;;5154426;27;20038;-70
2022/09/15 04:26:20;;;;;;;9.15;1.48;;;15.20;99.90;;;;;;5154176;27;20095;-69
2022/09/15 04:28:46;;;;;;;6.65;1.40;;;15.10;99.90;;;;;;5153759;27;20047;-69
2022/09/15 04:31:14;;;;;;;8.05;1.52;;;14.80;99.90;;;;;;5135471;27;20439;-67
2022/09/15 04:33:41;;;;;;;5.88;1.08;;;15.10;99.90;;;;;;5153945;27;20035;-69
2022/09/15 04:36:10;;;;;;;6.47;1.20;;;14.70;99.90;;;;;;5153987;27;20383;-71
2022/09/15 04:38:36;;;;;;;5.20;1.40;;;14.90;99.90;;;;;;5153992;27;20446;-70
2022/09/15 04:41:03;;;;;;;7.22;1.58;;;14.30;99.90;;;;;;5153924;27;20047;-71
2022/09/15 04:43:29;;;;;;;6.38;1.15;;;14.50;99.90;;;;;;5153556;27;20084;-70
2022/09/15 04:45:55;;;;;;;6.57;1.15;;;14.60;99.90;;;;;;5153874;27;20034;-68
2022/09/15 04:48:21;;;;;;;;;;;14.50;99.90;;;;;;5154204;27;20133;-72
2022/09/15 04:50:46;;;;;;;10.95;1.67;;;14.50;99.90;;;;;;5153649;27;20009;-71
2022/09/15 04:53:12;;;;;;;8.90;1.60;;;14.80;99.90;;;;;;5153714;27;20117;-71
2022/09/15 04:55:38;;;;;;;10.25;1.70;;;14.60;99.90;;;;;;5153706;27;20053;-71
2022/09/15 04:58:04;;;;;;;7.10;1.40;;;14.60;99.90;;;;;;5153517;27;20082;-71
2022/09/15 05:00:32;;;;;;;5.80;1.08;;;14.60;99.90;;;;;;5153950;27;20078;-68
2022/09/15 05:02:58;;;;;;;9.02;1.50;;;14.70;99.90;;;;;;5153674;27;20454;-71
2022/09/15 05:05:24;;;;;;;6.05;1.40;;;14.70;99.90;;;;;;5153621;27;20085;-69
2022/09/15 05:07:51;;;;;;;11.43;1.98;;;14.60;99.90;;;;;;5153718;27;20078;-71
2022/09/15 05:10:18;;;;;;;7.60;2.47;;;14.90;99.90;;;;;;5153492;27;20121;-71
2022/09/15 05:12:44;;;;;;;6.20;1.40;;;14.70;99.90;;;;;;5153395;27;20058;-71
2022/09/15 05:15:10;;;;;;;8.90;1.58;;;14.60;99.90;;;;;;5153524;27;20095;-71
2022/09/15 05:17:35;;;;;;;8.20;1.65;;;14.90;99.90;;;;;;5153509;27;20053;-69
2022/09/15 05:20:02;;;;;;;9.73;1.48;;;15.00;99.90;;;;;;5156440;27;20043;-68
2022/09/15 05:22:27;;;;;;;7.85;1.75;;;15.20;99.90;;;;;;5157645;27;20058;-69
2022/09/15 05:24:53;;;;;;;8.32;2.17;;;15.10;99.90;;;;;;5157602;27;20043;-71
2022/09/15 05:27:19;;;;;;;6.93;1.55;;;14.70;99.90;;;;;;5157305;27;20122;-69
2022/09/15 05:29:45;;;;;;;5.78;1.35;;;14.80;99.90;;;;;;5157666;27;20383;-69
2022/09/15 05:32:10;;;;;;;11.13;2.10;;;14.90;99.90;;;;;;5157381;27;20477;-71
2022/09/15 05:34:36;;;;;;;5.28;1.52;;;14.90;99.90;;;;;;5157446;27;20050;-69
2022/09/15 05:37:04;;;;;;;;;;;15.10;99.90;;;;;;5157808;27;20046;-71
2022/09/15 05:39:30;;;;;;;5.38;0.98;;;15.00;99.90;;;;;;5157306;27;19923;-71
2022/09/15 05:41:56;;;;;;;6.68;1.25;;;14.80;99.90;;;;;;5157020;27;20043;-71
2022/09/15 05:44:21;;;;;;;6.65;1.13;;;15.20;99.90;;;;;;5157541;27;20039;-71
2022/09/15 05:46:48;;;;;;;9.77;1.30;;;14.90;99.90;;;;;;5157145;27;20043;-71
2022/09/15 05:49:13;;;;;;;;;;;15.00;99.90;;;;;;5157588;27;20201;-69
2022/09/15 05:51:39;;;;;;;9.88;1.58;;;15.00;99.90;;;;;;5157028;27;20014;-71
2022/09/15 05:54:05;;;;;;;6.15;1.17;;;15.30;99.90;;;;;;5156750;27;20402;-70
2022/09/15 05:56:32;;;;;;;4.93;1.20;;;15.10;99.90;;;;;;5156761;27;20394;-71
2022/09/15 05:58:58;;;;;;;8.05;1.20;;;15.10;99.90;;;;;;5154602;27;20049;-70
2022/09/15 06:01:28;;;;;;;6.05;1.40;;;15.10;99.90;;;;;;5117692;27;20043;-70
2022/09/15 06:03:55;;;;;;;4.18;1.20;;;14.80;99.90;;;;;;5114840;28;20415;-71
2022/09/15 06:06:22;;;;;;;4.20;1.02;;;14.90;99.90;;;;;;5114860;28;20050;-70
2022/09/15 06:08:50;;;;;;;7.53;1.40;;;15.10;99.90;;;;;;5114792;28;20083;-70
2022/09/15 06:11:18;;;;;;;4.80;1.17;;;15.20;99.90;;;;;;5114862;28;20047;-70
2022/09/15 06:13:45;;;;;;;3.03;0.90;;;15.00;99.90;;;;;;5114818;28;20100;-69
2022/09/15 06:16:13;;;;;;;6.10;1.10;;;15.00;99.90;;;;;;5114635;28;20043;-70
2022/09/15 06:18:40;;;;;;;4.95;2.53;;;15.10;99.90;;;;;;5114565;28;20051;-71
2022/09/15 06:21:11;;;;;;;3.78;0.90;;;15.00;99.90;;;;;;5114555;28;20032;-71
2022/09/15 06:23:38;;;;;;;10.77;1.48;;;15.10;99.90;;;;;;5096169;28;20532;-72
2022/09/15 06:26:05;;;;;;;;;;;15.30;99.90;;;;;;5079753;28;20479;-71
2022/09/15 06:28:31;;;;;;;10.05;1.30;;;15.10;99.90;;;;;;5114595;28;19927;-70
2022/09/15 06:30:57;;;;;;;5.10;1.58;;;15.30;99.90;;;;;;5113592;28;20094;-70
2022/09/15 06:33:22;;;;;;;7.72;1.25;;;15.50;99.90;;;;;;5114515;28;20106;-70
2022/09/15 06:35:48;;;;;;;6.60;1.50;;;15.40;99.90;;;;;;5114388;28;20085;-70
2022/09/15 06:38:13;;;;;;;6.78;1.70;;;15.00;99.90;;;;;;5114132;28;20043;-69
2022/09/15 06:40:39;;;;;;;12.57;1.70;;;15.10;99.90;;;;;;5114450;28;20047;-69
2022/09/15 06:43:05;;;;;;;6.90;1.38;;;15.40;99.90;;;;;;5114342;28;20480;-70
2022/09/15 06:45:30;;;;;;;9.15;1.50;;;15.30;99.90;;;;;;5096214;28;20472;-69
2022/09/15 06:47:56;;;;;;;;;;;15.30;99.90;;;;;;5114550;28;20105;-70
2022/09/15 06:50:21;;;;;;;12.18;1.42;;;15.30;99.90;;;;;;5114061;28;20371;-69
2022/09/15 06:52:47;;;;;;;;;;;15.40;99.90;;;;;;5114291;28;20056;-70
2022/09/15 06:55:13;;;;;;;10.77;1.70;;;15.50;99.90;;;;;;5114020;28;19964;-69
2022/09/15 06:57:38;;;;;;;6.78;1.30;;;15.80;99.90;;;;;;5113910;28;20048;-70
2022/09/15 07:00:05;;;;;;;;;;;15.90;99.90;;;;;;5096114;28;20058;-70
2022/09/15 07:02:31;;;;;;;6.68;1.25;;;15.30;99.90;;;;;;5114001;28;19936;-70
2022/09/15 07:04:57;;;;;;;8.38;1.50;;;16.20;99.90;;;;;;5113936;28;20195;-70
2022/09/15 07:07:22;;;;;;;11.48;2.13;;;15.90;99.90;;;;;;5113841;28;20047;-70
2022/09/15 07:09:48;;;;;;;;;;;15.80;99.90;;;;;;5114127;28;20126;-69
2022/09/15 07:12:13;;;;;;;26.50;2.55;;;15.90;99.90;;;;;;5093630;27;20402;-79
2022/09/15 07:14:39;;;;;;;11.20;1.83;;;15.70;99.90;;;;;;5130948;27;20049;-72
2022/09/15 07:17:05;;;;;;;;;;;15.40;99.90;;;;;;5134193;27;20047;-69
2022/09/15 07:19:30;;;;;;;10.25;1.52;;;14.80;99.90;;;;;;5111371;27;19943;-65
2022/09/15 07:21:56;;;;;;;9.65;2.10;;;14.70;99.90;;;;;;5112761;28;20050;-76
2022/09/15 07:24:21;;;;;;;;;;;14.50;99.90;;;;;;5113706;28;20044;-68
2022/09/15 07:26:47;;;;;;;12.23;1.85;;;14.30;99.90;;;;;;5113226;28;19930;-70
2022/09/15 07:29:13;;;;;;;10.45;1.70;;;14.70;99.90;;;;;;5113135;28;20136;-69
2022/09/15 07:31:39;;;;;;;12.75;2.15;;;14.70;99.90;;;;;;5113299;28;20077;-64
2022/09/15 07:34:05;;;;;;;13.88;2.22;;;14.40;99.90;;;;;;5112658;28;20083;-67
2022/09/15 07:36:31;;;;;;;7.35;1.50;;;14.60;99.90;;;;;;5112701;28;20051;-69
2022/09/15 07:38:56;;;;;;;13.07;1.70;;;14.60;99.90;;;;;;5113175;28;20043;-77
2022/09/15 07:41:24;;;;;;;10.13;1.85;;;14.70;99.90;;;;;;5112900;28;20472;-68
2022/09/15 07:43:52;;;;;;;8.70;2.10;;;15.00;99.90;;;;;;5113034;28;20050;-70
2022/09/15 07:46:19;;;;;;;7.13;1.70;;;14.90;99.90;;;;;;5112994;28;20138;-69
2022/09/15 07:48:46;;;;;;;11.60;1.48;;;15.40;99.90;;;;;;5112454;28;20043;-72
2022/09/15 07:51:13;;;;;;;7.88;1.50;;;15.30;99.90;;;;;;5112495;28;20783;-65
2022/09/15 07:53:39;;;;;;;5.60;1.17;;;15.50;99.90;;;;;;5112666;28;20126;-64
2022/09/15 07:56:05;;;;;;;11.82;1.65;;;15.50;99.90;;;;;;5112825;28;20126;-65
2022/09/15 07:58:31;;;;;;;;;;;15.20;99.90;;;;;;5113132;28;20043;-69
2022/09/15 08:01:04;;;;;;;11.35;1.80;;;15.20;99.90;;;;;;5112468;28;20296;-72
2022/09/15 08:03:31;;;;;;;6.82;1.70;;;15.30;99.90;;;;;;5112363;28;20126;-67
2022/09/15 08:06:01;;;;;;;6.45;1.90;;;15.20;99.90;;;;;;5112520;28;20127;-69
2022/09/15 08:08:28;;;;;;;8.10;1.98;;;15.30;99.90;;;;;;5112746;28;20044;-66
2022/09/15 08:10:54;;;;;;;7.10;1.52;;;15.10;99.90;;;;;;5112349;28;20391;-73
2022/09/15 08:13:20;;;;;;;8.43;1.45;;;15.00;99.90;;;;;;5112324;28;20040;-70
2022/09/15 08:15:46;;;;;;;6.63;1.85;;;15.10;99.90;;;;;;5127727;27;20074;-70
2022/09/15 08:18:13;;;;;;;10.98;1.83;;;14.90;99.90;;;;;;5143706;27;20084;-71
2022/09/15 08:20:39;;;;;;;;;;;15.30;99.90;;;;;;5142494;27;20042;-68
2022/09/15 08:23:05;;;;;;;9.45;1.95;;;15.70;99.90;;;;;;5146777;27;19923;-67
2022/09/15 08:25:30;;;;;;;8.43;1.50;;;16.10;99.90;;;;;;5153833;27;20129;-66
2022/09/15 08:27:58;;;;;;;11.32;2.30;;;16.20;99.90;;;;;;5154073;27;20133;-69
2022/09/15 08:30:25;;;;;;;18.70;3.30;;;16.10;99.90;;;;;;5153805;27;20188;-62
2022/09/15 08:32:51;;;;;;;30.27;3.15;;;15.90;99.90;;;;;;5153951;27;20049;-58
2022/09/15 08:35:18;;;;;;;10.30;1.92;;;16.00;99.90;;;;;;5153741;27;20047;-60
2022/09/15 08:37:44;;;;;;;19.83;2.60;;;14.60;99.90;;;;;;5150622;27;20118;-61
2022/09/15 08:40:24;;;;;;;10.90;1.88;;;14.00;99.90;;;;;;5135702;27;20127;-62
2022/09/15 08:42:54;;;;;;;15.70;2.20;;;13.60;99.90;;;;;;5133230;27;20047;-62
2022/09/15 08:45:25;;;;;;;9.20;2.00;;;13.70;99.90;;;;;;5112333;27;20043;-63
2022/09/15 08:47:58;;;;;;;11.73;2.08;;;13.40;99.90;;;;;;5114464;27;20085;-62
2022/09/15 08:50:30;;;;;;;12.65;1.98;;;13.70;99.90;;;;;;5132141;27;20126;-63
2022/09/15 08:53:10;;;;;;;12.45;2.30;;;13.70;99.90;;;;;;5132483;27;20519;-65
2022/09/15 08:55:49;;;;;;;13.00;2.08;;;13.90;99.90;;;;;;5132471;28;20043;-71
2022/09/15 08:58:22;;;;;;;10.77;1.73;;;13.60;99.90;;;;;;5114424;28;20364;-67
2022/09/15 09:01:04;;;;;;;15.57;3.10;;;14.20;99.90;;;;;;5132528;28;20482;-66
2022/09/15 09:03:56;;;;;;;6.20;1.80;;;14.00;99.90;;;;;;5130948;28;20039;-67
2022/09/15 09:06:43;;;;;;;6.70;1.67;;;13.90;99.90;;;;;;5132793;28;20112;-68
2022/09/15 09:09:34;;;;;;;14.05;2.03;;;13.90;99.90;;;;;;5132973;28;20047;-68
2022/09/15 09:12:18;;;;;;;8.02;1.90;;;14.00;99.90;;;;;;5132831;28;20054;-68
2022/09/15 09:15:01;;;;;;;6.68;1.77;;;14.20;99.90;;;;;;5132985;28;20505;-67
2022/09/15 09:17:36;;;;;;;8.27;1.60;;;13.80;99.90;;;;;;5132664;28;20047;-67
2022/09/15 09:20:28;;;;;;;8.07;1.70;;;14.40;99.90;;;;;;5132827;28;20043;-67
2022/09/15 09:22:54;;;;;;;10.07;1.85;;;13.90;99.90;;;;;;5132849;28;20073;-66
2022/09/15 09:25:21;;;;;;;10.13;1.70;;;14.00;99.90;;;;;;5132771;28;20508;-67
2022/09/15 09:27:47;;;;;;;9.35;1.88;;;15.30;99.90;;;;;;5132738;28;20127;-67
2022/09/15 09:30:18;;;;;;;13.30;1.85;;;14.80;99.90;;;;;;5132570;28;20066;-69
2022/09/15 09:32:55;;;;;;;11.40;1.85;;;14.20;99.90;;;;;;5132463;28;20376;-68
2022/09/15 09:35:32;;;;;;;7.50;1.60;;;14.20;99.90;;;;;;5132741;28;20043;-68
2022/09/15 09:38:01;;;;;;;11.18;3.03;;;14.40;99.90;;;;;;5132703;28;20040;-67
2022/09/15 09:40:29;;;;;;;10.88;2.15;;;14.60;99.90;;;;;;5133006;28;20139;-68
2022/09/15 09:42:55;;;;;;;11.32;1.60;;;14.60;99.90;;;;;;5132262;28;20390;-68
2022/09/15 09:45:22;;;;;;;7.60;1.80;;;14.60;99.90;;;;;;5097370;28;20486;-67
2022/09/15 09:47:48;;;;;;;4.78;1.55;;;15.60;99.90;;;;;;5132279;28;20043;-66
2022/09/15 09:50:41;;;;;;;8.75;2.22;;;14.40;99.90;;;;;;5132566;28;20043;-65
2022/09/15 09:53:37;;;;;;;10.32;1.92;;;14.60;99.90;;;;;;5132921;28;20043;-65
2022/09/15 09:56:16;;;;;;;8.25;1.33;;;14.20;99.90;;;;;;5131896;28;20091;-65
2022/09/15 09:58:43;;;;;;;8.10;1.30;;;14.40;99.90;;;;;;5132557;28;20407;-65
2022/09/15 10:01:14;;;;;;;9.70;1.75;;;14.30;99.90;;;;;;5132217;28;20051;-65
2022/09/15 10:03:42;;;;;;;4.55;1.33;;;14.50;99.90;;;;;;5132606;28;20050;-68
2022/09/15 10:06:21;;;;;;;12.60;2.30;;;14.50;99.90;;;;;;5133642;27;20043;-64
2022/09/15 10:09:04;;;;;;;11.13;1.92;;;14.80;99.90;;;;;;5136114;27;20047;-64
2022/09/15 10:11:57;;;;;;;10.65;1.80;;;15.10;99.90;;;;;;5135997;27;20155;-64
2022/09/15 10:14:38;;;;;;;10.98;1.95;;;15.20;99.90;;;;;;5117515;27;20047;-65
2022/09/15 10:17:12;;;;;;;6.30;1.75;;;15.10;99.90;;;;;;5135566;27;20051;-64
2022/09/15 10:19:44;;;;;;;5.07;1.30;;;14.70;99.90;;;;;;5135903;27;20046;-64
2022/09/15 10:22:39;;;;;;;6.95;1.25;;;14.90;99.90;;;;;;5135780;27;20039;-65
2022/09/15 10:25:20;;;;;;;6.40;1.00;;;14.70;99.90;;;;;;5134650;27;20051;-69
2022/09/15 10:28:20;;;;;;;4.30;1.58;;;14.30;99.90;;;;;;5135736;27;20089;-66
2022/09/15 10:31:09;;;;;;;3.83;1.42;;;14.50;99.90;;;;;;5090643;27;20058;-67
2022/09/15 10:33:40;;;;;;;8.82;1.45;;;14.60;99.90;;;;;;5135635;27;20402;-68
2022/09/15 10:36:30;;;;;;;5.82;1.70;;;14.70;99.90;;;;;;5135513;27;20043;-67
2022/09/15 10:39:01;;;;;;;5.32;1.60;;;14.90;99.90;;;;;;5122550;27;20066;-68
2022/09/15 10:41:33;;;;;;;3.80;1.27;;;14.60;99.90;;;;;;5135500;27;20043;-67
2022/09/15 10:44:24;;;;;;;7.43;1.27;;;15.00;99.90;;;;;;5135510;27;20078;-67
2022/09/15 10:47:33;;;;;;;7.20;1.50;;;15.20;99.90;;;;;;5135055;27;20379;-66
2022/09/15 10:50:11;;;;;;;4.22;1.15;;;15.10;99.90;;;;;;5135278;27;20463;-67
2022/09/15 10:52:51;;;;;;;7.68;1.83;;;15.40;99.90;;;;;;5135258;27;20390;-66
2022/09/15 10:55:41;;;;;;;4.35;1.25;;;15.70;99.90;;;;;;5135089;27;20050;-66
2022/09/15 10:58:31;;;;;;;8.52;1.30;;;15.30;99.90;;;;;;5134992;27;20043;-66
2022/09/15 11:01:11;;;;;;;6.28;1.58;;;15.80;99.90;;;;;;5134875;27;20390;-64
2022/09/15 11:03:43;;;;;;;5.93;1.13;;;16.30;99.90;;;;;;5135103;27;20547;-65
2022/09/15 11:06:22;;;;;;;6.55;1.52;;;16.20;99.90;;;;;;5134999;27;20106;-67
2022/09/15 11:09:13;;;;;;;5.88;1.23;;;16.40;99.90;;;;;;5135013;27;20050;-65
2022/09/15 11:11:43;;;;;;;11.38;1.70;;;16.80;99.90;;;;;;5134659;27;20042;-64
2022/09/15 11:14:33;;;;;;;10.60;1.90;;;16.60;99.90;;;;;;5134500;27;20051;-64
2022/09/15 11:17:09;;;;;;;11.10;2.05;;;17.20;99.90;;;;;;5134011;27;20525;-64
2022/09/15 11:19:37;;;;;;;6.90;1.23;;;16.70;99.90;;;;;;5134735;27;20595;-67
2022/09/15 11:22:27;;;;;;;4.63;1.15;;;16.80;99.90;;;;;;5116317;27;20118;-64
2022/09/15 11:25:18;;;;;;;6.00;1.58;;;17.00;99.90;;;;;;5134626;27;20050;-65
2022/09/15 11:27:52;;;;;;;2.78;1.10;;;17.10;99.90;;;;;;5134546;27;20047;-65
2022/09/15 11:30:49;;;;;;;5.18;1.27;;;17.60;99.90;;;;;;5134029;27;20162;-67
2022/09/15 11:33:25;;;;;;;3.97;1.23;;;17.30;99.90;;;;;;5133771;27;20050;-66
2022/09/15 11:36:01;;;;;;;3.90;1.20;;;16.80;99.90;;;;;;5134469;27;20088;-68
2022/09/15 11:38:46;;;;;;;5.90;1.60;;;17.20;99.90;;;;;;5134440;27;20058;-65
2022/09/15 11:41:20;;;;;;;4.97;1.33;;;16.90;99.90;;;;;;5134331;27;20051;-66
2022/09/15 11:43:53;;;;;;;4.03;1.63;;;16.70;99.90;;;;;;5134348;27;20439;-71
2022/09/15 11:46:42;;;;;;;9.63;2.40;;;16.30;99.90;;;;;;5134423;27;20135;-66
2022/09/15 11:49:16;;;;;;;7.22;1.48;;;16.60;99.90;;;;;;5133471;27;20516;-67
2022/09/15 11:52:00;;;;;;;9.32;1.80;;;16.60;99.90;;;;;;5134040;27;20082;-68
2022/09/15 11:54:39;;;;;;;10.57;1.33;;;16.70;99.90;;;;;;5134011;27;20047;-67
2022/09/15 11:57:11;;;;;;;4.78;1.30;;;16.90;99.90;;;;;;5133725;27;20043;-66
2022/09/15 12:00:11;;;;;;;5.10;1.15;;;17.00;99.90;;;;;;5133697;27;20553;-66
2022/09/15 12:03:05;;;;;;;5.47;1.30;;;17.00;99.90;;;;;;5118261;27;20070;-66
2022/09/15 12:05:54;;;;;;;5.32;1.77;;;17.10;99.90;;;;;;5133843;27;20039;-66
2022/09/15 12:08:45;;;;;;;7.80;1.95;;;17.10;99.90;;;;;;5133797;27;20053;-67
2022/09/15 12:11:21;;;;;;;7.25;1.50;;;17.50;99.90;;;;;;5133543;27;20047;-70
2022/09/15 12:13:47;;;;;;;7.53;1.65;;;17.60;99.90;;;;;;5133410;27;20051;-69
2022/09/15 12:16:14;;;;;;;7.50;1.60;;;17.50;99.90;;;;;;5133667;27;20054;-67
2022/09/15 12:19:08;;;;;;;6.95;1.58;;;17.40;99.90;;;;;;5098572;27;20082;-66
2022/09/15 12:21:49;;;;;;;7.95;1.23;;;17.40;99.90;;;;;;5133558;27;20452;-65
2022/09/15 12:24:42;;;;;;;7.22;1.10;;;17.40;99.90;;;;;;5133468;27;20183;-67
2022/09/15 12:27:16;;;;;;;7.35;1.27;;;17.80;99.90;;;;;;5133175;27;20077;-66
2022/09/15 12:29:54;;;;;;;3.65;1.23;;;17.50;99.90;;;;;;5132412;27;20059;-67
2022/09/15 12:32:29;;;;;;;9.93;1.70;;;17.60;99.90;;;;;;5133240;27;20039;-66
2022/09/15 12:35:24;;;;;;;4.78;0.90;;;17.90;99.90;;;;;;5132968;27;20490;-65
2022/09/15 12:37:56;;;;;;;4.47;1.52;;;17.70;99.90;;;;;;5133140;27;20039;-67
2022/09/15 12:40:38;;;;;;;4.82;1.05;;;18.00;99.90;;;;;;5133184;27;20047;-65
2022/09/15 12:43:23;;;;;;;4.97;1.30;;;17.60;99.90;;;;;;5133279;27;20051;-70
2022/09/15 12:45:55;;;;;;;4.68;1.60;;;17.60;99.90;;;;;;5133240;27;20046;-66
2022/09/15 12:48:34;;;;;;;4.90;1.70;;;18.20;99.90;;;;;;5114902;27;20074;-65
2022/09/15 12:51:04;;;;;;;4.28;1.30;;;17.80;99.90;;;;;;5133120;27;20050;-68
2022/09/15 12:53:36;;;;;;;6.28;1.33;;;17.70;99.90;;;;;;5114651;28;20066;-66
2022/09/15 12:56:09;;;;;;;6.28;1.35;;;17.60;99.90;;;;;;5132790;28;20050;-68
2022/09/15 12:58:39;;;;;;;10.20;1.90;;;17.70;99.90;;;;;;5133013;28;20131;-64
2022/09/15 13:01:17;;;;;;;19.58;2.53;;;16.70;99.90;;;;;;5132695;28;20883;-64
2022/09/15 13:03:43;;;;;;;7.95;1.98;;;16.30;99.90;;;;;;5132998;28;20050;-64
2022/09/15 13:06:08;;;;;;;;;;;15.80;99.90;;;;;;5133342;28;20062;-65
2022/09/15 13:08:35;;;;;;;15.55;2.03;;;15.60;99.90;;;;;;5132995;28;19919;-65
2022/09/15 13:11:09;;;;;;;11.63;1.73;;;15.40;99.90;;;;;;5132560;28;20147;-65
2022/09/15 13:13:54;;;;;;;12.93;2.03;;;15.30;99.90;;;;;;5132900;28;20054;-65